sensor_id;sensor_type;location;lat;lon;timestamp;P1;durP1;ratioP1;P2;durP2;ratioP2
55678;SDS011;41573;51.446;-2.018;2022-11-20T00:02:09;64.78;;;60.42;;
55678;SDS011;41573;51.446;-2.018;2022-11-20T00:04:35;12.82;;;9.65;;
55678;SDS011;41573;51.446;-2.018;2022-11-20T00:07:00;36.05;;;34.03;;
55678;SDS011;41573;51.446;-2.018;2022-11-20T00:09:26;16.50;;;13.90;;
55678;SDS011;41573;51.446;-2.018;2022-11-20T00:11:51;20.00;;;18.50;;
55678;SDS011;41573;51.446;-2.018;2022-11-20T00:14:16;23.08;;;21.35;;
55678;SDS011;41573;51.446;-2.018;2022-11-20T00:16:42;22.38;;;20.70;;
55678;SDS011;41573;51.446;-2.018;2022-11-20T00:19:08;21.45;;;19.45;;
55678;SDS011;41573;51.446;-2.018;2022-11-20T00:21:34;10.98;;;9.35;;
55678;SDS011;41573;51.446;-2.018;2022-11-20T00:24:08;17.65;;;15.30;;
55678;SDS011;41573;51.446;-2.018;2022-11-20T00:26:34;22.90;;;21.35;;
55678;SDS011;41573;51.446;-2.018;2022-11-20T00:29:00;23.38;;;21.45;;
55678;SDS011;41573;51.446;-2.018;2022-11-20T00:31:26;30.20;;;28.27;;
55678;SDS011;41573;51.446;-2.018;2022-11-20T00:33:52;27.65;;;25.60;;
55678;SDS011;41573;51.446;-2.018;2022-11-20T00:36:19;28.23;;;26.33;;
55678;SDS011;41573;51.446;-2.018;2022-11-20T00:38:46;40.92;;;38.35;;
55678;SDS011;41573;51.446;-2.018;2022-11-20T00:41:13;24.83;;;22.67;;
55678;SDS011;41573;51.446;-2.018;2022-11-20T00:43:40;33.67;;;31.65;;
55678;SDS011;41573;51.446;-2.018;2022-11-20T00:46:07;36.50;;;34.20;;
55678;SDS011;41573;51.446;-2.018;2022-11-20T00:48:43;31.88;;;29.75;;
55678;SDS011;41573;51.446;-2.018;2022-11-20T00:51:10;40.55;;;38.05;;
55678;SDS011;41573;51.446;-2.018;2022-11-20T00:53:37;35.67;;;33.33;;
55678;SDS011;41573;51.446;-2.018;2022-11-20T00:56:04;77.80;;;73.32;;
55678;SDS011;41573;51.446;-2.018;2022-11-20T00:58:33;104.40;;;98.72;;
55678;SDS011;41573;51.446;-2.018;2022-11-20T01:01:19;134.55;;;126.65;;
55678;SDS011;41573;51.446;-2.018;2022-11-20T01:03:47;67.95;;;63.95;;
55678;SDS011;41573;51.446;-2.018;2022-11-20T01:06:15;120.85;;;114.22;;
55678;SDS011;41573;51.446;-2.018;2022-11-20T01:08:43;99.30;;;93.72;;
55678;SDS011;41573;51.446;-2.018;2022-11-20T01:11:10;153.38;;;144.63;;
55678;SDS011;41573;51.446;-2.018;2022-11-20T01:13:37;126.40;;;119.32;;
55678;SDS011;41573;51.446;-2.018;2022-11-20T01:18:29;141.00;;;133.00;;
55678;SDS011;41573;51.446;-2.018;2022-11-20T01:20:55;146.57;;;138.32;;
55678;SDS011;41573;51.446;-2.018;2022-11-20T01:23:20;154.40;;;145.40;;
55678;SDS011;41573;51.446;-2.018;2022-11-20T01:25:46;143.77;;;135.35;;
55678;SDS011;41573;51.446;-2.018;2022-11-20T01:28:11;146.07;;;137.80;;
55678;SDS011;41573;51.446;-2.018;2022-11-20T01:30:36;99.15;;;92.97;;
55678;SDS011;41573;51.446;-2.018;2022-11-20T01:33:02;97.30;;;91.70;;
55678;SDS011;41573;51.446;-2.018;2022-11-20T01:35:27;86.80;;;82.13;;
55678;SDS011;41573;51.446;-2.018;2022-11-20T01:37:52;113.85;;;107.45;;
55678;SDS011;41573;51.446;-2.018;2022-11-20T01:40:18;48.70;;;45.90;;
55678;SDS011;41573;51.446;-2.018;2022-11-20T01:42:45;55.92;;;52.67;;
55678;SDS011;41573;51.446;-2.018;2022-11-20T01:45:50;50.78;;;47.65;;
55678;SDS011;41573;51.446;-2.018;2022-11-20T01:51:23;68.97;;;64.85;;
55678;SDS011;41573;51.446;-2.018;2022-11-20T01:54:05;87.90;;;82.80;;
55678;SDS011;41573;51.446;-2.018;2022-11-20T01:56:36;121.07;;;114.00;;
55678;SDS011;41573;51.446;-2.018;2022-11-20T02:01:30;63.42;;;59.28;;
55678;SDS011;41573;51.446;-2.018;2022-11-20T02:03:56;110.25;;;104.15;;
55678;SDS011;41573;51.446;-2.018;2022-11-20T02:06:26;103.90;;;98.32;;
55678;SDS011;41573;51.446;-2.018;2022-11-20T02:08:55;156.43;;;147.65;;
55678;SDS011;41573;51.446;-2.018;2022-11-20T02:11:21;238.43;;;225.43;;
55678;SDS011;41573;51.446;-2.018;2022-11-20T02:13:46;228.23;;;215.57;;
55678;SDS011;41573;51.446;-2.018;2022-11-20T02:16:19;269.88;;;246.80;;
55678;SDS011;41573;51.446;-2.018;2022-11-20T02:18:48;279.52;;;230.25;;
55678;SDS011;41573;51.446;-2.018;2022-11-20T02:26:30;198.63;;;187.73;;
55678;SDS011;41573;51.446;-2.018;2022-11-20T02:28:59;234.77;;;221.48;;
55678;SDS011;41573;51.446;-2.018;2022-11-20T02:31:27;146.57;;;139.02;;
55678;SDS011;41573;51.446;-2.018;2022-11-20T02:33:56;331.85;;;313.50;;
55678;SDS011;41573;51.446;-2.018;2022-11-20T02:36:22;395.33;;;371.63;;
55678;SDS011;41573;51.446;-2.018;2022-11-20T02:38:49;323.50;;;303.67;;
55678;SDS011;41573;51.446;-2.018;2022-11-20T02:41:15;277.20;;;260.05;;
55678;SDS011;41573;51.446;-2.018;2022-11-20T02:43:41;263.95;;;248.30;;
55678;SDS011;41573;51.446;-2.018;2022-11-20T02:46:06;350.83;;;331.05;;
55678;SDS011;41573;51.446;-2.018;2022-11-20T02:48:32;426.17;;;399.38;;
55678;SDS011;41573;51.446;-2.018;2022-11-20T02:50:58;380.60;;;357.02;;
55678;SDS011;41573;51.446;-2.018;2022-11-20T02:53:23;415.08;;;388.90;;
55678;SDS011;41573;51.446;-2.018;2022-11-20T02:55:48;357.00;;;335.58;;
55678;SDS011;41573;51.446;-2.018;2022-11-20T02:58:14;203.93;;;191.75;;
55678;SDS011;41573;51.446;-2.018;2022-11-20T03:00:40;331.75;;;311.40;;
55678;SDS011;41573;51.446;-2.018;2022-11-20T03:03:05;186.48;;;174.50;;
55678;SDS011;41573;51.446;-2.018;2022-11-20T03:05:31;321.52;;;302.50;;
55678;SDS011;41573;51.446;-2.018;2022-11-20T03:07:56;130.15;;;121.45;;
55678;SDS011;41573;51.446;-2.018;2022-11-20T03:10:21;327.00;;;306.83;;
55678;SDS011;41573;51.446;-2.018;2022-11-20T03:12:47;381.60;;;355.45;;
55678;SDS011;41573;51.446;-2.018;2022-11-20T03:15:12;118.32;;;110.53;;
55678;SDS011;41573;51.446;-2.018;2022-11-20T03:17:38;244.88;;;230.02;;
55678;SDS011;41573;51.446;-2.018;2022-11-20T03:20:04;311.55;;;292.88;;
55678;SDS011;41573;51.446;-2.018;2022-11-20T03:55:06;307.05;;;282.40;;
55678;SDS011;41573;51.446;-2.018;2022-11-20T03:57:32;280.70;;;261.73;;
55678;SDS011;41573;51.446;-2.018;2022-11-20T03:59:58;351.75;;;330.25;;
55678;SDS011;41573;51.446;-2.018;2022-11-20T04:02:24;558.35;;;516.83;;
55678;SDS011;41573;51.446;-2.018;2022-11-20T04:04:49;435.08;;;407.75;;
55678;SDS011;41573;51.446;-2.018;2022-11-20T04:07:15;506.90;;;472.45;;
55678;SDS011;41573;51.446;-2.018;2022-11-20T04:09:40;650.90;;;599.85;;
55678;SDS011;41573;51.446;-2.018;2022-11-20T04:12:06;470.25;;;441.15;;
55678;SDS011;41573;51.446;-2.018;2022-11-20T04:18:01;515.42;;;475.92;;
55678;SDS011;41573;51.446;-2.018;2022-11-20T04:20:27;619.83;;;572.95;;
55678;SDS011;41573;51.446;-2.018;2022-11-20T04:22:53;575.17;;;534.42;;
55678;SDS011;41573;51.446;-2.018;2022-11-20T04:25:19;644.15;;;594.70;;
55678;SDS011;41573;51.446;-2.018;2022-11-20T04:27:45;706.72;;;651.70;;
55678;SDS011;41573;51.446;-2.018;2022-11-20T04:30:10;665.17;;;611.20;;
55678;SDS011;41573;51.446;-2.018;2022-11-20T04:32:36;568.70;;;533.70;;
55678;SDS011;41573;51.446;-2.018;2022-11-20T04:35:01;520.60;;;487.55;;
55678;SDS011;41573;51.446;-2.018;2022-11-20T04:37:27;495.90;;;464.95;;
55678;SDS011;41573;51.446;-2.018;2022-11-20T04:39:52;548.35;;;510.13;;
55678;SDS011;41573;51.446;-2.018;2022-11-20T04:42:18;630.30;;;584.65;;
55678;SDS011;41573;51.446;-2.018;2022-11-20T04:44:55;512.35;;;478.85;;
55678;SDS011;41573;51.446;-2.018;2022-11-20T04:47:21;455.23;;;427.30;;
55678;SDS011;41573;51.446;-2.018;2022-11-20T04:49:47;448.73;;;420.27;;
55678;SDS011;41573;51.446;-2.018;2022-11-20T04:52:13;480.98;;;451.77;;
55678;SDS011;41573;51.446;-2.018;2022-11-20T04:54:38;516.67;;;484.27;;
55678;SDS011;41573;51.446;-2.018;2022-11-20T04:57:04;558.58;;;519.55;;
55678;SDS011;41573;51.446;-2.018;2022-11-20T04:59:29;554.83;;;517.25;;
55678;SDS011;41573;51.446;-2.018;2022-11-20T05:01:54;548.55;;;513.13;;
55678;SDS011;41573;51.446;-2.018;2022-11-20T05:04:20;563.58;;;527.35;;
55678;SDS011;41573;51.446;-2.018;2022-11-20T05:06:45;539.38;;;504.50;;
55678;SDS011;41573;51.446;-2.018;2022-11-20T05:09:14;630.20;;;587.97;;
55678;SDS011;41573;51.446;-2.018;2022-11-20T05:11:39;595.53;;;555.03;;
55678;SDS011;41573;51.446;-2.018;2022-11-20T05:14:05;580.40;;;540.25;;
55678;SDS011;41573;51.446;-2.018;2022-11-20T05:16:30;567.70;;;530.53;;
55678;SDS011;41573;51.446;-2.018;2022-11-20T05:18:56;564.10;;;527.58;;
55678;SDS011;41573;51.446;-2.018;2022-11-20T05:21:21;551.63;;;515.75;;
55678;SDS011;41573;51.446;-2.018;2022-11-20T05:23:47;607.42;;;566.92;;
55678;SDS011;41573;51.446;-2.018;2022-11-20T05:26:13;578.30;;;539.63;;
55678;SDS011;41573;51.446;-2.018;2022-11-20T05:28:44;734.47;;;676.58;;
55678;SDS011;41573;51.446;-2.018;2022-11-20T05:31:13;663.55;;;616.90;;
55678;SDS011;41573;51.446;-2.018;2022-11-20T05:33:41;726.08;;;671.15;;
55678;SDS011;41573;51.446;-2.018;2022-11-20T05:36:08;693.88;;;643.75;;
55678;SDS011;41573;51.446;-2.018;2022-11-20T05:38:34;769.70;;;705.95;;
55678;SDS011;41573;51.446;-2.018;2022-11-20T05:41:10;653.08;;;608.08;;
55678;SDS011;41573;51.446;-2.018;2022-11-20T05:43:39;700.47;;;643.10;;
55678;SDS011;41573;51.446;-2.018;2022-11-20T05:46:06;788.58;;;715.13;;
55678;SDS011;41573;51.446;-2.018;2022-11-20T05:48:34;769.38;;;699.33;;
55678;SDS011;41573;51.446;-2.018;2022-11-20T05:51:01;692.67;;;643.15;;
55678;SDS011;41573;51.446;-2.018;2022-11-20T05:53:28;600.30;;;556.85;;
55678;SDS011;41573;51.446;-2.018;2022-11-20T05:56:12;701.05;;;650.95;;
55678;SDS011;41573;51.446;-2.018;2022-11-20T05:58:40;690.90;;;639.28;;
55678;SDS011;41573;51.446;-2.018;2022-11-20T06:01:06;613.67;;;567.03;;
55678;SDS011;41573;51.446;-2.018;2022-11-20T06:03:34;602.35;;;554.50;;
55678;SDS011;41573;51.446;-2.018;2022-11-20T06:06:39;624.47;;;575.08;;
55678;SDS011;41573;51.446;-2.018;2022-11-20T06:09:04;655.78;;;606.70;;
55678;SDS011;41573;51.446;-2.018;2022-11-20T06:11:31;677.75;;;620.08;;
55678;SDS011;41573;51.446;-2.018;2022-11-20T06:13:59;603.67;;;555.30;;
55678;SDS011;41573;51.446;-2.018;2022-11-20T06:16:25;599.10;;;555.63;;
55678;SDS011;41573;51.446;-2.018;2022-11-20T06:18:50;616.88;;;571.63;;
55678;SDS011;41573;51.446;-2.018;2022-11-20T06:21:17;553.00;;;511.00;;
55678;SDS011;41573;51.446;-2.018;2022-11-20T06:23:44;566.63;;;524.40;;
55678;SDS011;41573;51.446;-2.018;2022-11-20T06:26:14;583.25;;;540.00;;
55678;SDS011;41573;51.446;-2.018;2022-11-20T06:28:41;506.60;;;469.30;;
55678;SDS011;41573;51.446;-2.018;2022-11-20T06:31:07;532.60;;;491.70;;
55678;SDS011;41573;51.446;-2.018;2022-11-20T06:33:35;476.10;;;442.25;;
55678;SDS011;41573;51.446;-2.018;2022-11-20T06:36:00;527.00;;;485.38;;
55678;SDS011;41573;51.446;-2.018;2022-11-20T06:38:28;473.00;;;440.48;;
55678;SDS011;41573;51.446;-2.018;2022-11-20T06:40:54;421.98;;;391.77;;
55678;SDS011;41573;51.446;-2.018;2022-11-20T06:43:20;405.88;;;375.42;;
55678;SDS011;41573;51.446;-2.018;2022-11-20T06:45:46;495.02;;;459.35;;
55678;SDS011;41573;51.446;-2.018;2022-11-20T06:48:11;463.50;;;429.33;;
55678;SDS011;41573;51.446;-2.018;2022-11-20T06:50:37;531.58;;;491.20;;
55678;SDS011;41573;51.446;-2.018;2022-11-20T06:53:03;453.08;;;419.98;;
55678;SDS011;41573;51.446;-2.018;2022-11-20T06:55:30;529.30;;;489.45;;
55678;SDS011;41573;51.446;-2.018;2022-11-20T06:57:56;445.48;;;412.40;;
55678;SDS011;41573;51.446;-2.018;2022-11-20T07:00:21;518.25;;;480.08;;
55678;SDS011;41573;51.446;-2.018;2022-11-20T07:02:47;434.67;;;404.35;;
55678;SDS011;41573;51.446;-2.018;2022-11-20T07:05:12;563.22;;;517.40;;
55678;SDS011;41573;51.446;-2.018;2022-11-20T07:07:38;474.08;;;441.45;;
55678;SDS011;41573;51.446;-2.018;2022-11-20T07:10:03;557.13;;;515.75;;
55678;SDS011;41573;51.446;-2.018;2022-11-20T07:12:30;552.08;;;509.98;;
55678;SDS011;41573;51.446;-2.018;2022-11-20T07:14:55;459.17;;;425.10;;
55678;SDS011;41573;51.446;-2.018;2022-11-20T07:17:21;431.60;;;401.65;;
55678;SDS011;41573;51.446;-2.018;2022-11-20T07:19:47;370.45;;;346.13;;
55678;SDS011;41573;51.446;-2.018;2022-11-20T07:22:12;357.55;;;330.15;;
55678;SDS011;41573;51.446;-2.018;2022-11-20T07:24:38;423.48;;;393.67;;
55678;SDS011;41573;51.446;-2.018;2022-11-20T07:27:04;496.17;;;461.30;;
55678;SDS011;41573;51.446;-2.018;2022-11-20T07:29:29;469.25;;;435.77;;
55678;SDS011;41573;51.446;-2.018;2022-11-20T07:31:55;468.23;;;434.35;;
55678;SDS011;41573;51.446;-2.018;2022-11-20T07:34:28;436.33;;;405.90;;
55678;SDS011;41573;51.446;-2.018;2022-11-20T07:36:54;428.40;;;396.55;;
55678;SDS011;41573;51.446;-2.018;2022-11-20T07:39:21;376.33;;;349.15;;
55678;SDS011;41573;51.446;-2.018;2022-11-20T07:41:47;421.55;;;390.70;;
55678;SDS011;41573;51.446;-2.018;2022-11-20T07:44:18;438.30;;;407.10;;
55678;SDS011;41573;51.446;-2.018;2022-11-20T07:46:43;534.00;;;492.67;;
55678;SDS011;41573;51.446;-2.018;2022-11-20T07:49:10;388.00;;;359.63;;
55678;SDS011;41573;51.446;-2.018;2022-11-20T07:51:35;488.55;;;451.00;;
55678;SDS011;41573;51.446;-2.018;2022-11-20T07:54:00;513.47;;;475.08;;
55678;SDS011;41573;51.446;-2.018;2022-11-20T07:56:26;523.80;;;479.55;;
55678;SDS011;41573;51.446;-2.018;2022-11-20T07:58:51;312.65;;;287.42;;
55678;SDS011;41573;51.446;-2.018;2022-11-20T08:01:17;347.77;;;324.00;;
55678;SDS011;41573;51.446;-2.018;2022-11-20T08:03:42;363.70;;;333.77;;
55678;SDS011;41573;51.446;-2.018;2022-11-20T08:06:08;414.67;;;374.73;;
55678;SDS011;41573;51.446;-2.018;2022-11-20T08:08:34;517.47;;;465.58;;
55678;SDS011;41573;51.446;-2.018;2022-11-20T08:10:59;446.77;;;403.55;;
55678;SDS011;41573;51.446;-2.018;2022-11-20T08:13:45;212.60;;;194.82;;
55678;SDS011;41573;51.446;-2.018;2022-11-20T08:16:29;303.58;;;277.60;;
55678;SDS011;41573;51.446;-2.018;2022-11-20T08:18:54;324.75;;;298.23;;
55678;SDS011;41573;51.446;-2.018;2022-11-20T08:21:20;346.85;;;319.25;;
55678;SDS011;41573;51.446;-2.018;2022-11-20T08:23:45;385.70;;;353.23;;
55678;SDS011;41573;51.446;-2.018;2022-11-20T08:26:11;483.42;;;438.85;;
55678;SDS011;41573;51.446;-2.018;2022-11-20T08:28:37;459.55;;;425.75;;
55678;SDS011;41573;51.446;-2.018;2022-11-20T08:31:02;468.58;;;431.60;;
55678;SDS011;41573;51.446;-2.018;2022-11-20T08:33:28;425.90;;;394.02;;
55678;SDS011;41573;51.446;-2.018;2022-11-20T08:35:58;491.83;;;450.58;;
55678;SDS011;41573;51.446;-2.018;2022-11-20T08:38:28;406.67;;;376.80;;
55678;SDS011;41573;51.446;-2.018;2022-11-20T08:40:57;520.25;;;473.52;;
55678;SDS011;41573;51.446;-2.018;2022-11-20T08:43:45;406.48;;;375.77;;
55678;SDS011;41573;51.446;-2.018;2022-11-20T08:46:10;511.27;;;467.45;;
55678;SDS011;41573;51.446;-2.018;2022-11-20T08:48:36;548.60;;;502.17;;
55678;SDS011;41573;51.446;-2.018;2022-11-20T08:51:02;563.83;;;512.83;;
55678;SDS011;41573;51.446;-2.018;2022-11-20T08:53:27;378.60;;;344.40;;
55678;SDS011;41573;51.446;-2.018;2022-11-20T08:55:53;545.35;;;496.88;;
55678;SDS011;41573;51.446;-2.018;2022-11-20T08:58:18;510.73;;;468.05;;
55678;SDS011;41573;51.446;-2.018;2022-11-20T09:00:44;661.03;;;600.75;;
55678;SDS011;41573;51.446;-2.018;2022-11-20T09:03:10;634.65;;;576.20;;
55678;SDS011;41573;51.446;-2.018;2022-11-20T09:05:37;414.45;;;383.48;;
55678;SDS011;41573;51.446;-2.018;2022-11-20T09:08:02;573.33;;;524.40;;
55678;SDS011;41573;51.446;-2.018;2022-11-20T09:10:28;578.83;;;531.25;;
55678;SDS011;41573;51.446;-2.018;2022-11-20T09:12:54;555.08;;;504.70;;
55678;SDS011;41573;51.446;-2.018;2022-11-20T09:15:20;582.25;;;535.88;;
55678;SDS011;41573;51.446;-2.018;2022-11-20T09:20:18;694.45;;;628.55;;
55678;SDS011;41573;51.446;-2.018;2022-11-20T09:22:44;617.90;;;566.28;;
55678;SDS011;41573;51.446;-2.018;2022-11-20T09:25:09;554.05;;;512.33;;
55678;SDS011;41573;51.446;-2.018;2022-11-20T09:27:35;739.88;;;676.90;;
55678;SDS011;41573;51.446;-2.018;2022-11-20T09:30:01;653.03;;;603.60;;
55678;SDS011;41573;51.446;-2.018;2022-11-20T09:32:27;656.30;;;609.03;;
55678;SDS011;41573;51.446;-2.018;2022-11-20T09:34:52;752.17;;;691.95;;
55678;SDS011;41573;51.446;-2.018;2022-11-20T09:37:18;725.08;;;668.80;;
55678;SDS011;41573;51.446;-2.018;2022-11-20T09:39:43;760.45;;;698.17;;
55678;SDS011;41573;51.446;-2.018;2022-11-20T09:42:22;764.30;;;699.80;;
55678;SDS011;41573;51.446;-2.018;2022-11-20T09:45:22;674.97;;;626.80;;
55678;SDS011;41573;51.446;-2.018;2022-11-20T09:48:00;752.42;;;690.45;;
55678;SDS011;41573;51.446;-2.018;2022-11-20T09:50:52;789.00;;;713.90;;
55678;SDS011;41573;51.446;-2.018;2022-11-20T09:53:35;787.90;;;652.92;;
55678;SDS011;41573;51.446;-2.018;2022-11-20T09:56:14;740.17;;;681.33;;
55678;SDS011;41573;51.446;-2.018;2022-11-20T09:58:45;759.40;;;693.20;;
55678;SDS011;41573;51.446;-2.018;2022-11-20T10:01:15;658.55;;;590.75;;
55678;SDS011;41573;51.446;-2.018;2022-11-20T10:03:50;887.40;;;796.28;;
55678;SDS011;41573;51.446;-2.018;2022-11-20T10:06:23;756.85;;;690.38;;
55678;SDS011;41573;51.446;-2.018;2022-11-20T10:14:42;936.00;;;840.50;;
55678;SDS011;41573;51.446;-2.018;2022-11-20T10:23:01;845.83;;;771.95;;
55678;SDS011;41573;51.446;-2.018;2022-11-20T10:25:47;826.80;;;755.30;;
55678;SDS011;41573;51.446;-2.018;2022-11-20T10:31:47;751.55;;;695.05;;
55678;SDS011;41573;51.446;-2.018;2022-11-20T10:34:12;797.08;;;731.97;;
55678;SDS011;41573;51.446;-2.018;2022-11-20T10:39:57;472.70;;;438.65;;
55678;SDS011;41573;51.446;-2.018;2022-11-20T10:45:14;841.17;;;760.97;;
55678;SDS011;41573;51.446;-2.018;2022-11-20T10:47:46;776.03;;;713.25;;
55678;SDS011;41573;51.446;-2.018;2022-11-20T10:50:14;878.88;;;797.22;;
55678;SDS011;41573;51.446;-2.018;2022-11-20T10:52:49;800.60;;;698.65;;
55678;SDS011;41573;51.446;-2.018;2022-11-20T11:01:14;763.70;;;696.15;;
55678;SDS011;41573;51.446;-2.018;2022-11-20T11:03:41;915.60;;;824.88;;
55678;SDS011;41573;51.446;-2.018;2022-11-20T11:06:10;839.72;;;756.55;;
55678;SDS011;41573;51.446;-2.018;2022-11-20T11:08:42;864.10;;;787.65;;
55678;SDS011;41573;51.446;-2.018;2022-11-20T11:11:15;811.40;;;621.35;;
55678;SDS011;41573;51.446;-2.018;2022-11-20T11:13:48;927.13;;;833.67;;
55678;SDS011;41573;51.446;-2.018;2022-11-20T11:16:21;864.38;;;773.17;;
55678;SDS011;41573;51.446;-2.018;2022-11-20T11:19:03;928.95;;;835.45;;
55678;SDS011;41573;51.446;-2.018;2022-11-20T11:21:32;875.35;;;799.40;;
55678;SDS011;41573;51.446;-2.018;2022-11-20T11:24:03;926.17;;;838.25;;
55678;SDS011;41573;51.446;-2.018;2022-11-20T11:26:29;703.47;;;637.80;;
55678;SDS011;41573;51.446;-2.018;2022-11-20T11:28:56;704.53;;;622.45;;
55678;SDS011;41573;51.446;-2.018;2022-11-20T11:31:27;266.73;;;248.15;;
55678;SDS011;41573;51.446;-2.018;2022-11-20T11:34:16;697.30;;;629.85;;
55678;SDS011;41573;51.446;-2.018;2022-11-20T11:36:42;796.97;;;723.10;;
55678;SDS011;41573;51.446;-2.018;2022-11-20T11:39:19;508.02;;;470.02;;
55678;SDS011;41573;51.446;-2.018;2022-11-20T11:41:46;741.95;;;570.47;;
55678;SDS011;41573;51.446;-2.018;2022-11-20T11:44:15;831.22;;;612.80;;
55678;SDS011;41573;51.446;-2.018;2022-11-20T11:47:02;615.22;;;570.53;;
55678;SDS011;41573;51.446;-2.018;2022-11-20T11:49:31;731.40;;;666.30;;
55678;SDS011;41573;51.446;-2.018;2022-11-20T11:57:17;780.13;;;712.78;;
55678;SDS011;41573;51.446;-2.018;2022-11-20T12:06:05;681.45;;;622.08;;
55678;SDS011;41573;51.446;-2.018;2022-11-20T12:11:16;653.33;;;597.70;;
55678;SDS011;41573;51.446;-2.018;2022-11-20T12:13:58;598.00;;;549.10;;
55678;SDS011;41573;51.446;-2.018;2022-11-20T12:16:30;776.85;;;704.42;;
55678;SDS011;41573;51.446;-2.018;2022-11-20T12:19:00;904.42;;;817.17;;
55678;SDS011;41573;51.446;-2.018;2022-11-20T12:24:20;588.47;;;545.95;;
55678;SDS011;41573;51.446;-2.018;2022-11-20T12:52:34;778.53;;;709.60;;
55678;SDS011;41573;51.446;-2.018;2022-11-20T12:58:57;813.83;;;746.05;;
55678;SDS011;41573;51.446;-2.018;2022-11-20T13:07:04;67.25;;;54.92;;
55678;SDS011;41573;51.446;-2.018;2022-11-20T13:09:33;824.70;;;737.10;;
55678;SDS011;41573;51.446;-2.018;2022-11-20T13:17:30;471.58;;;433.48;;
55678;SDS011;41573;51.446;-2.018;2022-11-20T13:20:02;669.58;;;576.97;;
55678;SDS011;41573;51.446;-2.018;2022-11-20T13:22:46;778.92;;;692.05;;
55678;SDS011;41573;51.446;-2.018;2022-11-20T13:25:50;417.00;;;389.88;;
55678;SDS011;41573;51.446;-2.018;2022-11-20T13:30:34;654.50;;;602.67;;
55678;SDS011;41573;51.446;-2.018;2022-11-20T13:35:59;499.27;;;457.63;;
55678;SDS011;41573;51.446;-2.018;2022-11-20T13:38:51;524.35;;;485.90;;
55678;SDS011;41573;51.446;-2.018;2022-11-20T13:44:10;827.63;;;738.83;;
55678;SDS011;41573;51.446;-2.018;2022-11-20T13:46:41;671.13;;;620.03;;
55678;SDS011;41573;51.446;-2.018;2022-11-20T13:49:10;861.40;;;768.28;;
55678;SDS011;41573;51.446;-2.018;2022-11-20T13:51:46;696.13;;;645.53;;
55678;SDS011;41573;51.446;-2.018;2022-11-20T13:59:41;753.03;;;687.05;;
55678;SDS011;41573;51.446;-2.018;2022-11-20T14:02:19;452.47;;;406.00;;
55678;SDS011;41573;51.446;-2.018;2022-11-20T14:04:51;677.92;;;537.33;;
55678;SDS011;41573;51.446;-2.018;2022-11-20T14:07:19;706.67;;;649.03;;
55678;SDS011;41573;51.446;-2.018;2022-11-20T14:09:51;677.42;;;626.30;;
55678;SDS011;41573;51.446;-2.018;2022-11-20T14:12:20;736.90;;;669.08;;
55678;SDS011;41573;51.446;-2.018;2022-11-20T14:14:52;680.85;;;630.00;;
55678;SDS011;41573;51.446;-2.018;2022-11-20T14:19:54;768.20;;;703.63;;
55678;SDS011;41573;51.446;-2.018;2022-11-20T14:22:26;736.58;;;682.45;;
55678;SDS011;41573;51.446;-2.018;2022-11-20T14:27:38;574.70;;;521.78;;
55678;SDS011;41573;51.446;-2.018;2022-11-20T14:30:16;506.83;;;472.65;;
55678;SDS011;41573;51.446;-2.018;2022-11-20T14:32:44;656.65;;;608.20;;
55678;SDS011;41573;51.446;-2.018;2022-11-20T14:35:23;767.33;;;710.60;;
55678;SDS011;41573;51.446;-2.018;2022-11-20T14:37:50;714.75;;;656.97;;
55678;SDS011;41573;51.446;-2.018;2022-11-20T14:40:23;945.97;;;849.33;;
55678;SDS011;41573;51.446;-2.018;2022-11-20T14:42:57;798.55;;;732.65;;
55678;SDS011;41573;51.446;-2.018;2022-11-20T14:45:24;831.58;;;760.10;;
55678;SDS011;41573;51.446;-2.018;2022-11-20T14:47:51;203.18;;;188.27;;
55678;SDS011;41573;51.446;-2.018;2022-11-20T14:50:26;434.67;;;399.52;;
55678;SDS011;41573;51.446;-2.018;2022-11-20T14:52:54;747.67;;;676.70;;
55678;SDS011;41573;51.446;-2.018;2022-11-20T14:55:31;335.65;;;314.83;;
55678;SDS011;41573;51.446;-2.018;2022-11-20T14:57:59;619.78;;;566.67;;
55678;SDS011;41573;51.446;-2.018;2022-11-20T15:00:27;508.98;;;472.80;;
55678;SDS011;41573;51.446;-2.018;2022-11-20T15:02:54;394.65;;;344.15;;
55678;SDS011;41573;51.446;-2.018;2022-11-20T15:05:20;387.20;;;355.35;;
55678;SDS011;41573;51.446;-2.018;2022-11-20T15:07:49;284.42;;;223.80;;
55678;SDS011;41573;51.446;-2.018;2022-11-20T15:10:26;358.40;;;335.02;;
55678;SDS011;41573;51.446;-2.018;2022-11-20T15:12:53;456.55;;;416.88;;
55678;SDS011;41573;51.446;-2.018;2022-11-20T15:15:32;453.90;;;419.75;;
55678;SDS011;41573;51.446;-2.018;2022-11-20T15:18:10;450.17;;;415.20;;
55678;SDS011;41573;51.446;-2.018;2022-11-20T15:20:38;465.92;;;363.60;;
55678;SDS011;41573;51.446;-2.018;2022-11-20T15:23:08;747.45;;;663.50;;
55678;SDS011;41573;51.446;-2.018;2022-11-20T15:25:39;431.42;;;400.92;;
55678;SDS011;41573;51.446;-2.018;2022-11-20T15:28:10;1177.20;;;851.75;;
55678;SDS011;41573;51.446;-2.018;2022-11-20T15:30:55;1160.45;;;748.53;;
55678;SDS011;41573;51.446;-2.018;2022-11-20T15:33:21;1219.90;;;682.88;;
55678;SDS011;41573;51.446;-2.018;2022-11-20T15:35:47;317.05;;;296.25;;
55678;SDS011;41573;51.446;-2.018;2022-11-20T15:38:13;507.88;;;463.48;;
55678;SDS011;41573;51.446;-2.018;2022-11-20T15:40:39;597.33;;;535.80;;
55678;SDS011;41573;51.446;-2.018;2022-11-20T15:43:05;543.25;;;500.73;;
55678;SDS011;41573;51.446;-2.018;2022-11-20T15:45:42;599.15;;;548.55;;
55678;SDS011;41573;51.446;-2.018;2022-11-20T15:48:12;395.05;;;371.17;;
55678;SDS011;41573;51.446;-2.018;2022-11-20T15:50:43;470.60;;;440.27;;
55678;SDS011;41573;51.446;-2.018;2022-11-20T15:53:15;651.05;;;603.90;;
55678;SDS011;41573;51.446;-2.018;2022-11-20T15:55:41;518.08;;;484.02;;
55678;SDS011;41573;51.446;-2.018;2022-11-20T15:58:06;637.20;;;587.70;;
55678;SDS011;41573;51.446;-2.018;2022-11-20T16:00:32;600.45;;;556.67;;
55678;SDS011;41573;51.446;-2.018;2022-11-20T16:02:57;513.08;;;480.52;;
55678;SDS011;41573;51.446;-2.018;2022-11-20T16:05:23;562.55;;;523.38;;
55678;SDS011;41573;51.446;-2.018;2022-11-20T16:07:49;547.97;;;510.77;;
55678;SDS011;41573;51.446;-2.018;2022-11-20T16:10:15;540.78;;;503.23;;
55678;SDS011;41573;51.446;-2.018;2022-11-20T16:12:41;537.90;;;502.85;;
55678;SDS011;41573;51.446;-2.018;2022-11-20T16:15:25;438.17;;;410.67;;
55678;SDS011;41573;51.446;-2.018;2022-11-20T16:18:12;243.98;;;230.70;;
55678;SDS011;41573;51.446;-2.018;2022-11-20T16:20:39;377.65;;;355.42;;
55678;SDS011;41573;51.446;-2.018;2022-11-20T16:23:05;221.77;;;210.05;;
55678;SDS011;41573;51.446;-2.018;2022-11-20T16:25:31;142.65;;;134.75;;
55678;SDS011;41573;51.446;-2.018;2022-11-20T16:27:57;135.60;;;128.48;;
55678;SDS011;41573;51.446;-2.018;2022-11-20T16:30:22;120.28;;;114.15;;
55678;SDS011;41573;51.446;-2.018;2022-11-20T16:32:48;118.45;;;112.22;;